Time;durP1;ratioP1;P1;durP2;ratioP2;P2;SDS_P1;SDS_P2;PMS_P1;PMS_P2;Temp;Humidity;BMP_temperature;BMP_pressure;BME280_temperature;BME280_humidity;BME280_pressure;Samples;Min_cycle;Max_cycle;Signal;HPM_P1;HPM_P2
2023/04/18 02:44:13;;;;;;;15.60;12.03;;;8.20;99.90;;;;;;5168160;22;20242;-42
2023/04/18 02:46:40;;;;;;;14.43;11.10;;;8.20;99.90;;;;;;5072697;28;20181;-41
2023/04/18 02:49:11;;;;;;;13.60;10.83;;;8.20;99.90;;;;;;5074149;28;20224;-42
2023/04/18 02:51:36;;;;;;;15.47;11.63;;;8.20;99.90;;;;;;5092441;28;20216;-42
2023/04/18 02:54:02;;;;;;;13.00;10.57;;;8.20;99.90;;;;;;5073747;28;20251;-41
2023/04/18 02:56:39;;;;;;;12.60;10.20;;;8.20;99.90;;;;;;5074295;28;20188;-41
2023/04/18 02:59:23;;;;;;;14.03;11.47;;;8.20;99.90;;;;;;5092109;28;20218;-41
2023/04/18 03:02:07;;;;;;;12.60;10.63;;;8.30;99.90;;;;;;5070249;28;20173;-42
2023/04/18 03:04:36;;;;;;;15.87;11.77;;;8.30;99.90;;;;;;5038384;28;20272;-42
2023/04/18 03:07:04;;;;;;;13.70;10.63;;;8.30;99.90;;;;;;5038258;28;20180;-41
2023/04/18 03:09:34;;;;;;;13.77;10.83;;;8.20;99.90;;;;;;5073992;28;20306;-42
2023/04/18 03:12:06;;;;;;;14.27;10.63;;;8.30;99.90;;;;;;5074292;28;20188;-42
2023/04/18 03:14:33;;;;;;;14.17;10.63;;;8.30;99.90;;;;;;5059829;28;20172;-42
2023/04/18 03:16:59;;;;;;;14.30;12.03;;;8.40;99.90;;;;;;5070507;28;20599;-42
2023/04/18 03:19:30;;;;;;;12.43;11.13;;;8.30;99.90;;;;;;5086137;28;20208;-42
2023/04/18 03:22:02;;;;;;;14.60;10.77;;;8.20;99.90;;;;;;5058495;28;20263;-42
2023/04/18 03:24:28;;;;;;;13.17;10.90;;;8.20;99.90;;;;;;5074012;28;20176;-42
2023/04/18 03:26:59;;;;;;;14.07;10.93;;;8.20;99.90;;;;;;5073882;28;20671;-42
2023/04/18 03:29:25;;;;;;;14.27;10.93;;;8.20;99.90;;;;;;5062411;28;20197;-41
2023/04/18 03:31:51;;;;;;;12.57;10.73;;;8.20;99.90;;;;;;5057234;28;20183;-42
2023/04/18 03:34:17;;;;;;;12.90;10.80;;;8.20;99.90;;;;;;5073812;28;20259;-42
2023/04/18 03:36:43;;;;;;;13.53;10.87;;;8.20;99.90;;;;;;5073711;28;20187;-42
2023/04/18 03:39:10;;;;;;;12.67;10.67;;;8.20;99.90;;;;;;5090279;28;20212;-40
2023/04/18 03:41:38;;;;;;;14.23;11.67;;;8.20;99.90;;;;;;5085977;28;20173;-42
2023/04/18 03:44:05;;;;;;;14.20;11.17;;;8.20;99.90;;;;;;5041940;28;20184;-40
2023/04/18 03:46:35;;;;;;;15.23;10.83;;;8.20;99.90;;;;;;5072887;28;20173;-42
2023/04/18 03:49:03;;;;;;;14.70;11.03;;;8.20;99.90;;;;;;5072874;28;20196;-42
2023/04/18 03:51:44;;;;;;;13.50;10.50;;;8.20;99.90;;;;;;5091442;28;20268;-41
2023/04/18 03:54:10;;;;;;;15.03;11.30;;;8.10;99.90;;;;;;5072669;28;20267;-41
2023/04/18 03:56:36;;;;;;;15.23;11.10;;;8.10;99.90;;;;;;5090565;28;20248;-40
2023/04/18 03:59:01;;;;;;;12.30;10.57;;;8.10;99.90;;;;;;5069437;28;20563;-43
2023/04/18 04:01:27;;;;;;;13.67;10.50;;;8.10;99.90;;;;;;5053433;28;20278;-42
2023/04/18 04:03:53;;;;;;;15.00;10.57;;;8.10;99.90;;;;;;5053447;28;20260;-42
2023/04/18 04:06:19;;;;;;;14.53;11.07;;;8.10;99.90;;;;;;5053004;28;20299;-42
2023/04/18 04:08:45;;;;;;;12.00;10.33;;;8.10;99.90;;;;;;5073072;28;20755;-41
2023/04/18 04:11:12;;;;;;;15.70;10.73;;;8.10;99.90;;;;;;5053050;28;20275;-40
2023/04/18 04:13:38;;;;;;;14.03;10.77;;;8.10;99.90;;;;;;5071089;28;20259;-42
2023/04/18 04:16:05;;;;;;;16.13;12.00;;;8.10;99.90;;;;;;5056383;28;20194;-41
2023/04/18 04:18:31;;;;;;;14.10;10.87;;;8.00;99.90;;;;;;5073251;28;20197;-42
2023/04/18 04:21:00;;;;;;;15.50;11.10;;;8.00;99.90;;;;;;5056626;28;20168;-40
2023/04/18 04:23:41;;;;;;;13.63;10.63;;;8.00;99.90;;;;;;5071742;28;20196;-39
2023/04/18 04:26:09;;;;;;;14.27;10.87;;;8.10;99.90;;;;;;5073272;28;20173;-40
2023/04/18 04:28:46;;;;;;;14.10;11.17;;;8.10;99.90;;;;;;5073245;28;20196;-40
2023/04/18 04:31:15;;;;;;;14.77;10.53;;;8.10;99.90;;;;;;5073109;28;20177;-38
2023/04/18 04:33:43;;;;;;;14.33;10.60;;;8.10;99.90;;;;;;5073432;28;20208;-40
2023/04/18 04:36:17;;;;;;;14.70;11.07;;;8.10;99.90;;;;;;5057009;28;20181;-38
2023/04/18 04:38:46;;;;;;;13.60;10.80;;;8.00;99.90;;;;;;5071878;28;20200;-38
2023/04/18 04:41:12;;;;;;;13.80;10.77;;;8.00;99.90;;;;;;5056969;28;20234;-39
2023/04/18 04:43:40;;;;;;;16.97;12.10;;;7.90;99.90;;;;;;5055536;28;20177;-39
2023/04/18 04:46:08;;;;;;;14.60;11.13;;;7.90;99.90;;;;;;5064947;28;20206;-41
2023/04/18 04:48:33;;;;;;;15.57;12.20;;;7.90;99.90;;;;;;5082390;28;20552;-40
2023/04/18 04:51:02;;;;;;;16.70;11.27;;;7.90;99.90;;;;;;5086912;28;20189;-40
2023/04/18 04:53:31;;;;;;;14.00;10.73;;;7.90;99.90;;;;;;5072411;28;20187;-40
2023/04/18 04:55:59;;;;;;;15.37;11.30;;;7.90;99.90;;;;;;5055516;28;20680;-39
2023/04/18 04:58:26;;;;;;;14.57;11.27;;;7.90;99.90;;;;;;5055409;28;20269;-41
2023/04/18 05:01:15;;;;;;;14.67;11.10;;;7.90;99.90;;;;;;5074046;28;20183;-41
2023/04/18 05:03:41;;;;;;;14.13;11.23;;;7.90;99.90;;;;;;5072725;28;20202;-40
2023/04/18 05:06:07;;;;;;;15.10;11.23;;;7.90;99.90;;;;;;5082784;28;20181;-42
2023/04/18 05:08:33;;;;;;;14.27;11.40;;;8.00;99.90;;;;;;5084355;28;20181;-41
2023/04/18 05:11:00;;;;;;;16.57;11.47;;;8.00;99.90;;;;;;5072105;28;20187;-42
2023/04/18 05:13:26;;;;;;;14.20;11.80;;;7.90;99.90;;;;;;5072154;28;20176;-41
2023/04/18 05:15:52;;;;;;;15.17;11.90;;;7.90;99.90;;;;;;5048627;28;20197;-41
2023/04/18 05:18:18;;;;;;;14.27;10.80;;;7.90;99.90;;;;;;5067317;28;20276;-42
2023/04/18 05:20:43;;;;;;;14.70;12.00;;;7.90;99.90;;;;;;5088929;28;20196;-41
2023/04/18 05:23:09;;;;;;;13.97;11.43;;;8.00;99.90;;;;;;5055264;28;20175;-41
2023/04/18 05:25:42;;;;;;;15.20;12.20;;;8.00;99.90;;;;;;5091421;28;20180;-42
2023/04/18 05:28:08;;;;;;;14.17;11.10;;;8.00;99.90;;;;;;5071857;28;20176;-42
2023/04/18 05:30:34;;;;;;;15.23;11.37;;;7.90;99.90;;;;;;5086256;28;20207;-42
2023/04/18 05:33:00;;;;;;;16.00;11.43;;;8.00;99.90;;;;;;5074841;28;20176;-42
2023/04/18 05:35:26;;;;;;;13.07;10.70;;;8.00;99.90;;;;;;5093991;28;20245;-42
2023/04/18 05:37:51;;;;;;;15.47;11.33;;;8.00;99.90;;;;;;5075129;28;20269;-40
2023/04/18 05:40:17;;;;;;;18.00;12.13;;;8.00;99.90;;;;;;5076016;28;20204;-42
2023/04/18 05:42:43;;;;;;;15.30;12.53;;;8.00;99.90;;;;;;5093924;28;20264;-42
2023/04/18 05:45:09;;;;;;;16.43;12.47;;;8.00;99.90;;;;;;5054199;28;20195;-41
2023/04/18 05:47:35;;;;;;;17.47;12.90;;;8.00;99.90;;;;;;5071949;28;20169;-41
2023/04/18 05:50:01;;;;;;;16.87;12.00;;;8.00;99.90;;;;;;5055312;28;20205;-41
2023/04/18 05:52:26;;;;;;;16.80;12.07;;;8.00;99.90;;;;;;5073282;28;20243;-41
2023/04/18 05:54:52;;;;;;;14.90;11.37;;;8.10;99.90;;;;;;5073318;28;20196;-41
2023/04/18 05:57:18;;;;;;;15.03;11.70;;;8.10;99.90;;;;;;5071578;28;20181;-42
2023/04/18 05:59:44;;;;;;;15.77;11.57;;;8.00;99.90;;;;;;5071788;28;20287;-42
2023/04/18 06:02:12;;;;;;;15.07;12.10;;;8.00;99.90;;;;;;5073077;28;20188;-42
2023/04/18 06:04:41;;;;;;;17.80;12.67;;;8.00;99.90;;;;;;5055093;28;20323;-41
2023/04/18 06:07:08;;;;;;;16.97;12.83;;;8.00;99.90;;;;;;5073217;28;20177;-41
2023/04/18 06:09:34;;;;;;;16.27;12.50;;;8.00;99.90;;;;;;5072304;28;20197;-41
2023/04/18 06:12:00;;;;;;;16.57;12.70;;;7.90;99.90;;;;;;5073081;28;20189;-42
2023/04/18 06:14:27;;;;;;;18.67;13.00;;;8.00;99.90;;;;;;5078894;28;20176;-41
2023/04/18 06:16:53;;;;;;;19.70;13.23;;;8.00;99.90;;;;;;5074483;28;20189;-42
2023/04/18 06:19:19;;;;;;;15.63;12.47;;;8.00;99.90;;;;;;5092500;28;20220;-42
2023/04/18 06:21:45;;;;;;;13.93;11.30;;;8.00;99.90;;;;;;5074958;28;20183;-41
2023/04/18 06:24:10;;;;;;;15.80;12.93;;;8.10;99.90;;;;;;5074780;28;20176;-42
2023/04/18 06:26:36;;;;;;;16.00;11.87;;;8.10;99.90;;;;;;5092893;28;20652;-42
2023/04/18 06:29:02;;;;;;;16.50;12.60;;;8.10;99.90;;;;;;5091025;28;20271;-42
2023/04/18 06:31:28;;;;;;;18.47;12.30;;;8.10;99.90;;;;;;5074850;28;20260;-42
2023/04/18 06:33:53;;;;;;;16.07;12.17;;;8.10;99.90;;;;;;5091684;28;20207;-41
2023/04/18 06:36:20;;;;;;;18.67;12.60;;;8.00;99.90;;;;;;5074365;28;20259;-42
2023/04/18 06:38:46;;;;;;;16.87;13.30;;;8.00;99.90;;;;;;5092323;28;20223;-41
2023/04/18 06:41:15;;;;;;;17.20;13.27;;;8.00;99.90;;;;;;5092994;28;20168;-41
2023/04/18 06:43:41;;;;;;;17.03;13.53;;;8.00;99.90;;;;;;5072798;28;20198;-42
2023/04/18 06:46:07;;;;;;;15.37;12.03;;;8.00;99.90;;;;;;5081010;28;20197;-41
2023/04/18 06:48:33;;;;;;;17.80;13.57;;;8.00;99.90;;;;;;5092028;28;20271;-41
2023/04/18 06:50:59;;;;;;;17.63;13.70;;;8.00;99.90;;;;;;5074243;28;20259;-41
2023/04/18 06:53:25;;;;;;;17.27;12.90;;;8.00;99.90;;;;;;5092436;28;20204;-42
2023/04/18 06:55:50;;;;;;;19.10;14.00;;;8.00;99.90;;;;;;5092357;28;20179;-42
2023/04/18 06:58:16;;;;;;;16.60;13.13;;;8.00;99.90;;;;;;5091912;28;20358;-41
2023/04/18 07:00:42;;;;;;;17.47;13.10;;;8.00;99.90;;;;;;5073327;28;20204;-41
2023/04/18 07:03:11;;;;;;;17.03;12.80;;;8.00;99.90;;;;;;5072059;28;20176;-41
2023/04/18 07:05:40;;;;;;;16.57;12.60;;;8.10;99.90;;;;;;5071932;28;20188;-41
2023/04/18 07:08:06;;;;;;;17.43;12.83;;;8.20;99.90;;;;;;5072112;28;20188;-42
2023/04/18 07:10:32;;;;;;;15.37;12.40;;;8.20;99.90;;;;;;5090213;28;20219;-41
2023/04/18 07:12:58;;;;;;;16.73;12.57;;;8.20;99.90;;;;;;5072161;28;20222;-42
2023/04/18 07:15:24;;;;;;;16.83;13.13;;;8.20;99.90;;;;;;5071248;28;20183;-42
2023/04/18 07:17:50;;;;;;;16.70;13.20;;;8.30;99.90;;;;;;5091210;28;20188;-41
2023/04/18 07:20:15;;;;;;;17.93;13.10;;;8.30;99.90;;;;;;5091904;28;20240;-41
2023/04/18 07:22:41;;;;;;;19.13;13.30;;;8.40;99.90;;;;;;5091921;28;20176;-41
2023/04/18 07:25:07;;;;;;;15.30;12.00;;;8.40;99.90;;;;;;5073534;28;20211;-41
2023/04/18 07:27:35;;;;;;;15.67;12.67;;;8.50;99.90;;;;;;5091690;28;20181;-41
2023/04/18 07:30:01;;;;;;;15.87;12.60;;;8.50;99.90;;;;;;5073305;28;20220;-42
2023/04/18 07:32:27;;;;;;;16.87;13.43;;;8.50;99.90;;;;;;5091860;28;20172;-41
2023/04/18 07:34:53;;;;;;;16.43;12.50;;;8.60;99.90;;;;;;5073559;28;20637;-41
2023/04/18 07:37:20;;;;;;;15.87;12.60;;;8.60;99.90;;;;;;5073409;28;20180;-41
2023/04/18 07:39:50;;;;;;;18.70;13.33;;;8.60;99.90;;;;;;5091156;28;20207;-40
2023/04/18 07:42:16;;;;;;;16.60;13.27;;;8.70;99.90;;;;;;5073440;28;20176;-41
2023/04/18 07:44:42;;;;;;;16.93;13.33;;;8.70;99.90;;;;;;5069752;28;20220;-42
2023/04/18 07:47:09;;;;;;;17.63;13.07;;;8.70;99.90;;;;;;5072551;28;20263;-41
2023/04/18 07:49:35;;;;;;;17.17;12.60;;;8.70;99.90;;;;;;5089822;28;20197;-42
2023/04/18 07:52:01;;;;;;;16.47;13.30;;;8.80;99.90;;;;;;5072476;28;20215;-42
2023/04/18 07:54:27;;;;;;;15.37;12.23;;;8.80;99.90;;;;;;5091327;28;20192;-41
2023/04/18 07:56:52;;;;;;;17.60;13.33;;;8.90;99.90;;;;;;5056565;28;20185;-40
2023/04/18 07:59:18;;;;;;;16.73;12.77;;;8.90;99.90;;;;;;5090625;28;20250;-42
2023/04/18 08:01:44;;;;;;;14.83;12.00;;;8.90;99.90;;;;;;5091010;28;20173;-41
2023/04/18 08:04:10;;;;;;;20.83;12.70;;;8.90;99.90;;;;;;5073435;28;20175;-42
2023/04/18 08:06:36;;;;;;;15.57;12.27;;;8.90;99.90;;;;;;5091468;28;20179;-41
2023/04/18 08:09:04;;;;;;;15.43;12.47;;;8.90;99.90;;;;;;5072861;28;20201;-42
2023/04/18 08:11:31;;;;;;;16.73;12.30;;;9.00;99.90;;;;;;5072831;28;20210;-42
2023/04/18 08:13:57;;;;;;;17.33;12.27;;;9.10;99.90;;;;;;5086987;28;20214;-42
2023/04/18 08:16:22;;;;;;;16.63;11.93;;;9.10;99.90;;;;;;5071882;28;20259;-42
2023/04/18 08:18:48;;;;;;;17.13;13.33;;;9.20;99.90;;;;;;5091215;28;20326;-41
2023/04/18 08:21:14;;;;;;;15.70;12.97;;;9.30;99.90;;;;;;5089663;28;20188;-42
2023/04/18 08:23:40;;;;;;;15.07;12.10;;;9.30;99.90;;;;;;5091116;28;20187;-41
2023/04/18 08:26:06;;;;;;;15.07;12.23;;;9.30;99.90;;;;;;5073072;28;20238;-41
2023/04/18 08:28:32;;;;;;;16.37;12.80;;;9.30;99.90;;;;;;5090534;28;20184;-42
2023/04/18 08:30:57;;;;;;;15.23;12.43;;;9.30;99.90;;;;;;5089651;28;20180;-40
2023/04/18 08:33:23;;;;;;;14.73;11.77;;;9.30;99.90;;;;;;5091325;28;20185;-39
2023/04/18 08:35:53;;;;;;;15.30;11.77;;;9.20;99.90;;;;;;5073056;28;20190;-38
2023/04/18 08:38:19;;;;;;;16.57;12.57;;;9.30;99.90;;;;;;5072501;28;20230;-39
2023/04/18 08:40:45;;;;;;;16.63;12.47;;;9.20;99.90;;;;;;5090525;28;20198;-38
2023/04/18 08:43:13;;;;;;;17.43;13.50;;;9.30;99.90;;;;;;5085920;28;20258;-40
2023/04/18 08:45:43;;;;;;;15.27;12.30;;;9.20;99.90;;;;;;5074398;28;20192;-41
2023/04/18 08:48:13;;;;;;;16.40;12.57;;;9.20;99.90;;;;;;5089716;28;20184;-37
2023/04/18 08:50:42;;;;;;;19.73;12.10;;;9.30;99.90;;;;;;5083430;28;20334;-41
2023/04/18 08:53:08;;;;;;;16.47;12.87;;;9.40;99.90;;;;;;5055828;28;20204;-40
2023/04/18 08:55:34;;;;;;;14.60;11.83;;;9.40;99.90;;;;;;5091199;28;20169;-41
2023/04/18 08:58:01;;;;;;;14.40;12.27;;;9.50;99.90;;;;;;5091113;28;20184;-39
2023/04/18 09:00:28;;;;;;;17.07;13.13;;;9.50;99.90;;;;;;5093844;28;20211;-41
2023/04/18 09:02:57;;;;;;;17.17;13.13;;;9.60;99.90;;;;;;5093408;28;20176;-38
2023/04/18 09:05:25;;;;;;;16.30;12.53;;;9.60;99.90;;;;;;5094417;28;20200;-41
2023/04/18 09:07:53;;;;;;;17.10;12.67;;;9.60;99.90;;;;;;5076237;28;20173;-41
2023/04/18 09:10:33;;;;;;;14.70;11.93;;;9.70;99.90;;;;;;5076213;28;20193;-39
2023/04/18 09:13:02;;;;;;;16.27;12.73;;;9.80;99.90;;;;;;5093977;28;20169;-41
2023/04/18 09:15:28;;;;;;;16.23;12.20;;;9.90;99.90;;;;;;5058932;28;20195;-41
2023/04/18 09:17:56;;;;;;;17.17;13.20;;;10.00;99.90;;;;;;5093262;28;20181;-40
2023/04/18 09:20:33;;;;;;;15.97;12.20;;;10.20;99.90;;;;;;5075888;28;20224;-39
2023/04/18 09:23:02;;;;;;;15.33;12.43;;;10.40;99.90;;;;;;5076029;28;20169;-39
2023/04/18 09:25:36;;;;;;;16.87;13.07;;;10.50;99.90;;;;;;5094171;28;20206;-40
2023/04/18 09:28:04;;;;;;;16.20;12.30;;;10.60;99.90;;;;;;5093714;28;20184;-41
2023/04/18 09:30:36;;;;;;;18.07;12.93;;;10.70;99.90;;;;;;5094019;28;20204;-39
2023/04/18 09:33:04;;;;;;;14.47;12.13;;;10.70;99.90;;;;;;5093969;28;20207;-41
2023/04/18 09:35:30;;;;;;;15.33;11.97;;;10.70;99.90;;;;;;5093926;28;20185;-40
2023/04/18 09:37:56;;;;;;;15.70;12.27;;;10.80;99.90;;;;;;5058903;28;20192;-38
2023/04/18 09:40:22;;;;;;;16.47;12.50;;;11.00;99.90;;;;;;5092468;28;20212;-38
2023/04/18 09:42:53;;;;;;;17.67;12.87;;;10.90;99.90;;;;;;5075678;28;20178;-41
2023/04/18 09:45:19;;;;;;;15.83;11.90;;;11.10;99.90;;;;;;5079922;28;20186;-37
2023/04/18 09:47:45;;;;;;;15.40;12.27;;;11.10;99.90;;;;;;5071683;28;20209;-41
2023/04/18 09:50:11;;;;;;;14.47;11.43;;;11.20;99.90;;;;;;5073309;28;20203;-40
2023/04/18 09:52:40;;;;;;;16.93;11.83;;;11.40;99.90;;;;;;5073074;28;20179;-39
2023/04/18 09:55:14;;;;;;;16.63;12.73;;;11.50;99.90;;;;;;5055300;28;20186;-40
2023/04/18 09:57:44;;;;;;;14.80;12.40;;;11.70;99.90;;;;;;5073023;28;20213;-40
2023/04/18 10:00:12;;;;;;;16.20;12.67;;;11.90;99.90;;;;;;5071936;28;20211;-37
2023/04/18 10:03:09;;;;;;;14.60;12.47;;;11.90;99.90;;;;;;5038792;28;20232;-38
2023/04/18 10:05:38;;;;;;;15.50;12.00;;;12.00;99.90;;;;;;5032068;28;20188;-41
2023/04/18 10:08:04;;;;;;;15.33;12.37;;;12.20;99.90;;;;;;5073252;28;20169;-38
2023/04/18 10:10:31;;;;;;;15.27;11.73;;;12.40;99.90;;;;;;5071114;28;20208;-40
2023/04/18 10:12:58;;;;;;;14.60;11.83;;;12.50;99.90;;;;;;5055004;28;20181;-38
2023/04/18 10:15:26;;;;;;;14.37;11.77;;;12.60;99.90;;;;;;5082193;28;20267;-41
2023/04/18 10:17:57;;;;;;;15.67;12.70;;;12.70;99.90;;;;;;5089171;28;20187;-40
2023/04/18 10:20:29;;;;;;;13.80;12.03;;;13.00;99.90;;;;;;5087024;28;20239;-40
2023/04/18 10:22:56;;;;;;;13.80;12.13;;;13.20;99.90;;;;;;5080764;28;20164;-41
2023/04/18 10:25:37;;;;;;;12.10;10.40;;;13.30;99.90;;;;;;5080047;28;20268;-42
2023/04/18 10:28:05;;;;;;;14.07;11.73;;;13.50;99.90;;;;;;5060762;28;20190;-42
2023/04/18 10:30:39;;;;;;;13.60;11.03;;;13.80;99.90;;;;;;5074666;28;20204;-39
2023/04/18 10:33:31;;;;;;;12.93;11.53;;;13.80;99.90;;;;;;5064998;28;20172;-40
2023/04/18 10:36:01;;;;;;;14.67;12.10;;;13.80;99.90;;;;;;5089764;28;20198;-40
2023/04/18 10:38:27;;;;;;;12.73;11.13;;;13.70;99.90;;;;;;5087039;28;20177;-41
2023/04/18 10:41:11;;;;;;;13.47;11.47;;;13.70;99.90;;;;;;5090415;28;20185;-40
2023/04/18 10:44:05;;;;;;;13.77;11.47;;;13.70;99.90;;;;;;5090511;28;20180;-40
2023/04/18 10:46:35;;;;;;;14.33;12.17;;;13.70;99.90;;;;;;5070636;28;20188;-39
2023/04/18 10:49:17;;;;;;;14.07;11.77;;;13.90;99.90;;;;;;5090255;28;20204;-41
2023/04/18 10:51:44;;;;;;;12.97;11.20;;;14.10;99.90;;;;;;5071470;28;20215;-41
2023/04/18 10:54:18;;;;;;;13.73;11.07;;;14.50;99.90;;;;;;5061215;28;20211;-41
2023/04/18 10:56:55;;;;;;;12.27;10.97;;;14.80;99.90;;;;;;5088821;28;20183;-41
2023/04/18 10:59:23;;;;;;;11.97;10.60;;;14.90;99.90;;;;;;5071584;28;20200;-41
2023/04/18 11:01:58;;;;;;;11.37;9.87;;;15.00;99.90;;;;;;5091489;28;20180;-39
2023/04/18 11:04:24;;;;;;;11.17;10.07;;;15.20;99.90;;;;;;5092118;28;20203;-41
2023/04/18 11:06:54;;;;;;;12.00;9.97;;;15.40;99.90;;;;;;5074175;28;20694;-41
2023/04/18 11:09:21;;;;;;;11.63;10.10;;;15.50;99.90;;;;;;5073525;28;20287;-40
2023/04/18 11:12:09;;;;;;;11.03;9.83;;;15.40;99.90;;;;;;5091768;28;20183;-39
2023/04/18 11:14:53;;;;;;;11.30;10.10;;;15.40;99.90;;;;;;5082833;28;20185;-39
2023/04/18 11:17:24;;;;;;;11.30;9.70;;;15.20;99.90;;;;;;5089781;28;20181;-42
2023/04/18 11:20:11;;;;;;;13.33;10.13;;;15.10;99.90;;;;;;5073171;28;20216;-41
2023/04/18 11:22:50;;;;;;;11.63;10.00;;;14.90;99.90;;;;;;5072735;28;20176;-42
2023/04/18 11:25:18;;;;;;;11.60;10.23;;;14.70;99.90;;;;;;5073112;28;20180;-41
2023/04/18 11:27:46;;;;;;;10.47;9.37;;;14.60;99.90;;;;;;5091229;28;20181;-41
2023/04/18 11:30:14;;;;;;;10.70;9.60;;;14.50;99.90;;;;;;5091496;28;20212;-41
2023/04/18 11:32:42;;;;;;;10.60;9.47;;;14.60;99.90;;;;;;5073391;28;20221;-43
2023/04/18 11:35:10;;;;;;;10.77;9.47;;;14.60;99.90;;;;;;5091757;28;20256;-42
2023/04/18 11:37:37;;;;;;;10.53;9.43;;;14.50;99.90;;;;;;5073085;28;20261;-42
2023/04/18 11:40:07;;;;;;;10.47;9.37;;;14.40;99.90;;;;;;5073013;28;20212;-39
2023/04/18 11:42:35;;;;;;;10.57;9.10;;;14.40;99.90;;;;;;5091385;28;20180;-42
2023/04/18 11:45:01;;;;;;;10.10;9.10;;;14.30;99.90;;;;;;5069826;28;20189;-42
2023/04/18 11:47:33;;;;;;;10.03;8.87;;;14.20;99.90;;;;;;5072898;28;20269;-42
2023/04/18 11:50:08;;;;;;;9.13;7.73;;;14.20;99.90;;;;;;5073177;28;20204;-42
2023/04/18 11:52:35;;;;;;;9.60;8.07;;;14.10;99.90;;;;;;5073168;28;20271;-42
2023/04/18 11:55:23;;;;;;;13.53;8.73;;;14.00;99.90;;;;;;5073090;28;20201;-42
2023/04/18 11:58:00;;;;;;;9.80;8.80;;;14.00;99.90;;;;;;5089194;28;20180;-41
2023/04/18 12:00:37;;;;;;;9.10;7.60;;;13.90;99.90;;;;;;5054941;28;20205;-42
2023/04/18 12:03:06;;;;;;;8.93;7.43;;;13.90;99.90;;;;;;5065981;28;20202;-42
2023/04/18 12:05:34;;;;;;;10.07;8.43;;;13.90;99.90;;;;;;5065121;28;20180;-42
2023/04/18 12:08:12;;;;;;;9.63;8.17;;;13.80;99.90;;;;;;5070691;28;20173;-42
2023/04/18 12:10:46;;;;;;;14.80;10.00;;;13.70;99.90;;;;;;5053619;28;20201;-42
2023/04/18 12:13:12;;;;;;;11.57;9.00;;;13.70;99.90;;;;;;5077009;28;20274;-42
2023/04/18 12:15:41;;;;;;;10.97;9.20;;;13.50;99.90;;;;;;5067581;28;20216;-42
2023/04/18 12:18:09;;;;;;;10.40;8.37;;;13.50;99.90;;;;;;5087979;28;20633;-42
2023/04/18 12:20:53;;;;;;;10.20;8.67;;;13.70;99.90;;;;;;5073702;28;20220;-42
2023/04/18 12:23:37;;;;;;;9.97;7.73;;;13.90;99.90;;;;;;5056857;28;20177;-42
2023/04/18 12:26:05;;;;;;;11.03;8.43;;;14.10;99.90;;;;;;5073554;28;20182;-42
2023/04/18 12:28:37;;;;;;;9.83;7.50;;;14.20;99.90;;;;;;5053935;28;20173;-41
2023/04/18 12:31:06;;;;;;;10.00;7.83;;;14.20;99.90;;;;;;5073338;28;20222;-42
2023/04/18 12:33:32;;;;;;;8.57;7.67;;;14.30;99.90;;;;;;5074938;28;20169;-42
2023/04/18 12:35:59;;;;;;;9.63;7.63;;;14.30;99.90;;;;;;5057023;28;20204;-43
2023/04/18 12:38:25;;;;;;;7.73;6.73;;;14.40;99.90;;;;;;5075016;28;20157;-42
2023/04/18 12:40:52;;;;;;;6.63;6.03;;;14.50;99.90;;;;;;5062692;28;20206;-40
2023/04/18 12:43:18;;;;;;;7.30;6.50;;;14.60;99.90;;;;;;5077154;28;20173;-42
2023/04/18 12:45:45;;;;;;;7.63;6.83;;;14.60;99.90;;;;;;5086959;28;20185;-43
2023/04/18 12:48:12;;;;;;;7.50;6.03;;;14.60;99.90;;;;;;5075837;28;20176;-42
2023/04/18 12:50:39;;;;;;;6.33;5.70;;;14.60;99.90;;;;;;5092660;28;20279;-42
2023/04/18 12:53:07;;;;;;;6.47;5.70;;;14.60;99.90;;;;;;5093660;28;20192;-42
2023/04/18 12:55:33;;;;;;;8.03;6.83;;;14.70;99.90;;;;;;5077020;28;20537;-42
2023/04/18 12:57:59;;;;;;;6.87;6.17;;;14.80;99.90;;;;;;5071761;28;20213;-42
2023/04/18 13:00:30;;;;;;;6.87;5.97;;;14.90;99.90;;;;;;5083186;28;20246;-42
2023/04/18 13:02:57;;;;;;;6.70;6.00;;;14.90;99.90;;;;;;5071789;28;20200;-42
2023/04/18 13:05:25;;;;;;;6.07;5.20;;;15.00;99.90;;;;;;5092446;28;20173;-40
2023/04/18 13:07:53;;;;;;;6.90;6.20;;;15.00;99.90;;;;;;5087196;28;20173;-42
2023/04/18 13:10:22;;;;;;;7.00;6.10;;;14.90;99.90;;;;;;5058779;28;20204;-42
2023/04/18 13:12:49;;;;;;;7.50;5.87;;;14.90;99.90;;;;;;5075269;28;20210;-41
2023/04/18 13:15:16;;;;;;;9.57;6.77;;;14.80;99.90;;;;;;5069944;28;20230;-41
2023/04/18 13:17:43;;;;;;;8.13;6.17;;;14.90;99.90;;;;;;5091806;28;20188;-41
2023/04/18 13:20:13;;;;;;;8.37;6.30;;;15.20;99.90;;;;;;5093901;28;20269;-41
2023/04/18 13:22:42;;;;;;;7.37;5.77;;;15.30;99.90;;;;;;5094396;28;20222;-41
2023/04/18 13:25:09;;;;;;;7.97;5.60;;;15.40;99.90;;;;;;5086351;28;20203;-40
2023/04/18 13:27:36;;;;;;;5.97;5.37;;;15.60;99.90;;;;;;5094156;28;20179;-40
2023/04/18 13:30:04;;;;;;;9.23;5.60;;;15.60;99.90;;;;;;5092813;28;20204;-40
2023/04/18 13:32:30;;;;;;;6.77;4.93;;;16.00;99.90;;;;;;5093786;28;20168;-41
2023/04/18 13:34:56;;;;;;;7.50;6.20;;;16.30;99.90;;;;;;5092909;28;20254;-41
2023/04/18 13:37:24;;;;;;;6.03;5.37;;;16.30;99.90;;;;;;5076746;28;20179;-42
2023/04/18 13:39:49;;;;;;;6.87;5.50;;;16.20;99.90;;;;;;5071581;28;20211;-41
2023/04/18 13:42:16;;;;;;;5.68;5.05;;;16.10;99.90;;;;;;5091619;28;20189;-41
2023/04/18 13:44:42;;;;;;;6.00;5.40;;;16.20;99.90;;;;;;5088555;28;20192;-41
2023/04/18 13:47:08;;;;;;;5.97;5.33;;;16.00;99.90;;;;;;5058561;28;20196;-40
2023/04/18 13:49:35;;;;;;;6.10;5.30;;;16.10;99.90;;;;;;5072251;28;20196;-38
2023/04/18 13:52:01;;;;;;;6.17;5.57;;;16.10;99.90;;;;;;5091148;28;20225;-41
2023/04/18 13:54:30;;;;;;;7.53;6.10;;;16.30;99.90;;;;;;5090492;28;20230;-41
2023/04/18 13:57:00;;;;;;;6.50;5.63;;;16.30;99.90;;;;;;5087582;28;20181;-42
2023/04/18 13:59:26;;;;;;;6.20;5.25;;;16.60;99.90;;;;;;5089841;28;20236;-41
2023/04/18 14:01:53;;;;;;;7.65;5.50;;;16.60;99.90;;;;;;5092298;28;20180;-41
2023/04/18 14:04:23;;;;;;;6.30;5.30;;;16.60;99.90;;;;;;5073811;28;20276;-42
2023/04/18 14:06:49;;;;;;;6.65;5.22;;;16.60;99.90;;;;;;5073897;28;20267;-41
2023/04/18 14:09:16;;;;;;;5.88;4.82;;;16.60;99.90;;;;;;5093077;28;20226;-41
2023/04/18 14:11:42;;;;;;;6.28;4.82;;;16.50;99.90;;;;;;5074010;28;20192;-41
2023/04/18 14:14:08;;;;;;;5.82;5.03;;;16.40;99.90;;;;;;5089258;28;20192;-39
2023/04/18 14:16:33;;;;;;;7.80;5.93;;;16.30;99.90;;;;;;5089613;28;20176;-42
2023/04/18 14:19:00;;;;;;;7.03;5.50;;;16.00;99.90;;;;;;5093407;28;20211;-41
2023/04/18 14:21:27;;;;;;;5.60;5.00;;;15.90;99.90;;;;;;5093314;28;20200;-39
2023/04/18 14:23:53;;;;;;;5.77;4.90;;;15.80;99.90;;;;;;5093214;28;20230;-42
2023/04/18 14:26:23;;;;;;;7.63;4.90;;;15.80;99.90;;;;;;5075342;28;20181;-43
2023/04/18 14:28:50;;;;;;;5.87;4.90;;;15.60;99.90;;;;;;5074788;28;20196;-42
2023/04/18 14:31:15;;;;;;;6.37;5.37;;;15.60;99.90;;;;;;5091872;28;20183;-42
2023/04/18 14:33:43;;;;;;;5.77;5.17;;;15.50;99.90;;;;;;5093013;28;20172;-38
2023/04/18 14:36:10;;;;;;;6.27;4.93;;;15.50;99.90;;;;;;5092972;28;20169;-42
2023/04/18 14:38:36;;;;;;;5.83;4.60;;;15.60;99.90;;;;;;5082066;28;20178;-42
2023/04/18 14:41:05;;;;;;;4.80;4.30;;;15.50;99.90;;;;;;5071392;28;20177;-42
2023/04/18 14:43:31;;;;;;;6.27;4.90;;;15.50;99.90;;;;;;5054984;28;20312;-42
2023/04/18 14:45:57;;;;;;;5.10;4.30;;;15.50;99.90;;;;;;5072732;28;20691;-42
2023/04/18 14:48:22;;;;;;;5.10;4.33;;;15.50;99.90;;;;;;5088281;28;20173;-42
2023/04/18 14:50:58;;;;;;;5.77;4.67;;;15.50;99.90;;;;;;5054561;28;20220;-41
2023/04/18 14:53:25;;;;;;;4.40;4.00;;;15.50;99.90;;;;;;5064796;28;20180;-41
2023/04/18 14:55:51;;;;;;;4.90;4.00;;;15.50;99.90;;;;;;5079580;28;20231;-42
2023/04/18 14:58:17;;;;;;;5.00;4.03;;;15.40;99.90;;;;;;5074330;28;20176;-42
2023/04/18 15:00:43;;;;;;;4.73;4.23;;;15.40;99.90;;;;;;5088440;28;20204;-42
2023/04/18 15:03:09;;;;;;;3.90;3.50;;;15.20;99.90;;;;;;5088054;28;20179;-42
2023/04/18 15:05:41;;;;;;;4.43;4.03;;;15.20;99.90;;;;;;5089498;28;20245;-41
2023/04/18 15:08:09;;;;;;;7.00;3.60;;;15.30;99.90;;;;;;5087271;28;20200;-43
2023/04/18 15:10:36;;;;;;;4.97;4.10;;;15.30;99.90;;;;;;5063746;28;20284;-41
2023/04/18 15:13:03;;;;;;;4.50;3.97;;;15.30;99.90;;;;;;5089296;28;20180;-42
2023/04/18 15:15:29;;;;;;;5.13;4.00;;;15.30;99.90;;;;;;5054192;28;20191;-39
2023/04/18 15:17:56;;;;;;;4.00;3.60;;;15.20;99.90;;;;;;5085427;28;20181;-43
2023/04/18 15:20:22;;;;;;;4.77;4.27;;;15.10;99.90;;;;;;5088167;28;20216;-43
2023/04/18 15:22:47;;;;;;;4.40;3.93;;;15.00;99.90;;;;;;5069780;28;20192;-42
2023/04/18 15:25:15;;;;;;;4.73;4.30;;;15.00;99.90;;;;;;5082383;28;20172;-40
2023/04/18 15:27:42;;;;;;;4.77;4.37;;;15.00;99.90;;;;;;5072689;28;20180;-39